sensor_id;sensor_type;location;lat;lon;timestamp;temperature;humidity
48328;DHT22;34136;51.022;7.082;2023-02-02T06:59:17;7.30;22.70
48328;DHT22;34136;51.022;7.082;2023-02-02T07:02:03;7.30;23.20
48328;DHT22;34136;51.022;7.082;2023-02-02T07:05:08;7.20;23.20
48328;DHT22;34136;51.022;7.082;2023-02-02T07:08:13;7.20;23.10
48328;DHT22;34136;51.022;7.082;2023-02-02T07:10:59;7.30;22.90
48328;DHT22;34136;51.022;7.082;2023-02-02T07:13:47;7.30;22.70
48328;DHT22;34136;51.022;7.082;2023-02-02T07:16:34;7.20;22.80
48328;DHT22;34136;51.022;7.082;2023-02-02T07:19:20;7.20;23.10
48328;DHT22;34136;51.022;7.082;2023-02-02T07:22:07;7.30;23.20
48328;DHT22;34136;51.022;7.082;2023-02-02T07:24:53;7.30;22.60
48328;DHT22;34136;51.022;7.082;2023-02-02T07:27:39;7.20;22.80
48328;DHT22;34136;51.022;7.082;2023-02-02T07:30:26;7.20;23.00
48328;DHT22;34136;51.022;7.082;2023-02-02T07:33:12;7.10;23.50
48328;DHT22;34136;51.022;7.082;2023-02-02T07:36:00;7.20;24.00
48328;DHT22;34136;51.022;7.082;2023-02-02T07:38:49;7.20;23.70
48328;DHT22;34136;51.022;7.082;2023-02-02T07:41:35;7.20;23.60
48328;DHT22;34136;51.022;7.082;2023-02-02T07:44:22;7.20;23.90
48328;DHT22;34136;51.022;7.082;2023-02-02T07:47:11;7.10;23.80
48328;DHT22;34136;51.022;7.082;2023-02-02T07:49:58;7.20;23.60
48328;DHT22;34136;51.022;7.082;2023-02-02T07:52:49;7.20;23.50
48328;DHT22;34136;51.022;7.082;2023-02-02T07:55:37;7.20;23.70
48328;DHT22;34136;51.022;7.082;2023-02-02T07:58:24;7.20;24.00
48328;DHT22;34136;51.022;7.082;2023-02-02T08:01:12;7.20;23.40
48328;DHT22;34136;51.022;7.082;2023-02-02T08:03:58;7.20;23.80
48328;DHT22;34136;51.022;7.082;2023-02-02T08:06:45;7.20;23.60
48328;DHT22;34136;51.022;7.082;2023-02-02T08:09:31;7.20;24.40
48328;DHT22;34136;51.022;7.082;2023-02-02T08:12:18;7.20;23.50
48328;DHT22;34136;51.022;7.082;2023-02-02T08:15:05;7.20;23.30
48328;DHT22;34136;51.022;7.082;2023-02-02T08:17:51;7.20;23.00
48328;DHT22;34136;51.022;7.082;2023-02-02T08:20:41;7.30;22.90
48328;DHT22;34136;51.022;7.082;2023-02-02T08:23:27;7.30;22.40
48328;DHT22;34136;51.022;7.082;2023-02-02T08:29:07;7.30;22.50
48328;DHT22;34136;51.022;7.082;2023-02-02T08:31:53;7.30;23.10
48328;DHT22;34136;51.022;7.082;2023-02-02T08:34:40;7.30;23.30
48328;DHT22;34136;51.022;7.082;2023-02-02T08:37:26;7.30;23.10
48328;DHT22;34136;51.022;7.082;2023-02-02T08:40:13;7.30;23.00
48328;DHT22;34136;51.022;7.082;2023-02-02T08:42:59;7.20;23.40
48328;DHT22;34136;51.022;7.082;2023-02-02T08:45:45;7.20;23.50
48328;DHT22;34136;51.022;7.082;2023-02-02T08:48:32;7.30;23.50
48328;DHT22;34136;51.022;7.082;2023-02-02T08:51:18;7.20;23.60
48328;DHT22;34136;51.022;7.082;2023-02-02T08:54:05;7.20;24.00
48328;DHT22;34136;51.022;7.082;2023-02-02T08:56:51;7.20;24.00
48328;DHT22;34136;51.022;7.082;2023-02-02T08:59:37;7.30;24.10
48328;DHT22;34136;51.022;7.082;2023-02-02T09:02:24;7.30;23.90
48328;DHT22;34136;51.022;7.082;2023-02-02T09:05:10;7.30;23.30
48328;DHT22;34136;51.022;7.082;2023-02-02T09:07:56;7.30;23.60
48328;DHT22;34136;51.022;7.082;2023-02-02T09:10:43;7.30;22.80
48328;DHT22;34136;51.022;7.082;2023-02-02T09:13:29;7.30;22.90
48328;DHT22;34136;51.022;7.082;2023-02-02T09:16:17;7.30;22.70
48328;DHT22;34136;51.022;7.082;2023-02-02T09:19:05;7.30;22.80
48328;DHT22;34136;51.022;7.082;2023-02-02T09:21:51;7.40;22.80
48328;DHT22;34136;51.022;7.082;2023-02-02T09:24:37;7.30;22.50
48328;DHT22;34136;51.022;7.082;2023-02-02T09:27:23;7.30;22.70
48328;DHT22;34136;51.022;7.082;2023-02-02T09:30:10;7.30;22.80
48328;DHT22;34136;51.022;7.082;2023-02-02T09:33:15;7.30;23.20
48328;DHT22;34136;51.022;7.082;2023-02-02T09:36:04;7.30;23.30
48328;DHT22;34136;51.022;7.082;2023-02-02T09:39:10;7.40;23.40
48328;DHT22;34136;51.022;7.082;2023-02-02T09:45:16;7.50;23.90
48328;DHT22;34136;51.022;7.082;2023-02-02T09:49:24;7.40;23.80
48328;DHT22;34136;51.022;7.082;2023-02-02T09:51:43;7.30;24.30
48328;DHT22;34136;51.022;7.082;2023-02-02T09:54:40;7.40;24.60
48328;DHT22;34136;51.022;7.082;2023-02-02T09:57:35;7.40;24.90
48328;DHT22;34136;51.022;7.082;2023-02-02T10:00:33;7.40;24.70
48328;DHT22;34136;51.022;7.082;2023-02-02T10:03:55;7.40;25.10
48328;DHT22;34136;51.022;7.082;2023-02-02T10:07:39;7.40;25.60
48328;DHT22;34136;51.022;7.082;2023-02-02T10:09:58;7.40;26.00
48328;DHT22;34136;51.022;7.082;2023-02-02T10:13:31;7.30;26.30
48328;DHT22;34136;51.022;7.082;2023-02-02T10:16:20;7.40;26.60
48328;DHT22;34136;51.022;7.082;2023-02-02T10:19:13;7.30;26.60
48328;DHT22;34136;51.022;7.082;2023-02-02T10:22:14;7.40;26.70
48328;DHT22;34136;51.022;7.082;2023-02-02T10:25:01;7.40;26.70
48328;DHT22;34136;51.022;7.082;2023-02-02T10:28:15;7.40;26.70
48328;DHT22;34136;51.022;7.082;2023-02-02T10:34:41;7.40;26.40
48328;DHT22;34136;51.022;7.082;2023-02-02T10:37:40;7.40;26.30
48328;DHT22;34136;51.022;7.082;2023-02-02T10:46:45;7.40;25.80
48328;DHT22;34136;51.022;7.082;2023-02-02T10:49:37;7.50;25.80
48328;DHT22;34136;51.022;7.082;2023-02-02T10:52:32;7.50;25.60
48328;DHT22;34136;51.022;7.082;2023-02-02T11:04:26;7.50;24.10
48328;DHT22;34136;51.022;7.082;2023-02-02T11:07:14;7.60;23.30
48328;DHT22;34136;51.022;7.082;2023-02-02T11:10:00;7.60;23.20
48328;DHT22;34136;51.022;7.082;2023-02-02T11:12:47;7.60;23.40
48328;DHT22;34136;51.022;7.082;2023-02-02T11:15:34;7.70;22.90
48328;DHT22;34136;51.022;7.082;2023-02-02T11:18:29;7.70;22.30
48328;DHT22;34136;51.022;7.082;2023-02-02T11:24:16;7.70;22.00
48328;DHT22;34136;51.022;7.082;2023-02-02T11:27:13;7.80;21.70
48328;DHT22;34136;51.022;7.082;2023-02-02T11:33:32;7.80;21.50
48328;DHT22;34136;51.022;7.082;2023-02-02T11:36:20;7.80;21.60
48328;DHT22;34136;51.022;7.082;2023-02-02T11:39:19;7.90;21.30
48328;DHT22;34136;51.022;7.082;2023-02-02T11:42:16;7.90;20.60
48328;DHT22;34136;51.022;7.082;2023-02-02T11:45:03;7.90;20.00
48328;DHT22;34136;51.022;7.082;2023-02-02T11:47:50;7.90;19.90
48328;DHT22;34136;51.022;7.082;2023-02-02T11:50:37;7.90;19.80
48328;DHT22;34136;51.022;7.082;2023-02-02T11:53:46;8.00;19.80
48328;DHT22;34136;51.022;7.082;2023-02-02T11:56:35;7.90;19.30
48328;DHT22;34136;51.022;7.082;2023-02-02T11:59:34;8.00;19.20
48328;DHT22;34136;51.022;7.082;2023-02-02T12:07:56;8.00;18.80
48328;DHT22;34136;51.022;7.082;2023-02-02T12:11:00;8.10;19.00
48328;DHT22;34136;51.022;7.082;2023-02-02T12:17:22;8.20;18.50
48328;DHT22;34136;51.022;7.082;2023-02-02T12:26:45;8.20;17.90
48328;DHT22;34136;51.022;7.082;2023-02-02T12:38:57;8.30;17.30
48328;DHT22;34136;51.022;7.082;2023-02-02T13:07:45;8.40;14.90
48328;DHT22;34136;51.022;7.082;2023-02-02T13:10:45;8.40;14.30
48328;DHT22;34136;51.022;7.082;2023-02-02T13:13:37;8.40;13.70
48328;DHT22;34136;51.022;7.082;2023-02-02T13:16:24;8.40;13.80
48328;DHT22;34136;51.022;7.082;2023-02-02T13:19:20;8.50;13.10
48328;DHT22;34136;51.022;7.082;2023-02-02T13:22:17;8.50;13.50
48328;DHT22;34136;51.022;7.082;2023-02-02T13:31:27;8.60;13.20
48328;DHT22;34136;51.022;7.082;2023-02-02T13:37:45;8.60;13.00
48328;DHT22;34136;51.022;7.082;2023-02-02T13:40:42;8.70;13.10
48328;DHT22;34136;51.022;7.082;2023-02-02T13:43:51;8.70;13.00
48328;DHT22;34136;51.022;7.082;2023-02-02T13:46:47;8.60;12.30
48328;DHT22;34136;51.022;7.082;2023-02-02T13:49:41;8.60;12.80
48328;DHT22;34136;51.022;7.082;2023-02-02T13:55:38;8.80;12.80
48328;DHT22;34136;51.022;7.082;2023-02-02T13:58:42;8.70;13.10
48328;DHT22;34136;51.022;7.082;2023-02-02T14:01:30;8.70;14.30
48328;DHT22;34136;51.022;7.082;2023-02-02T14:04:23;8.70;14.00
48328;DHT22;34136;51.022;7.082;2023-02-02T14:07:11;8.70;15.20
48328;DHT22;34136;51.022;7.082;2023-02-02T14:09:58;8.60;15.40
48328;DHT22;34136;51.022;7.082;2023-02-02T14:12:44;8.60;16.00
48328;DHT22;34136;51.022;7.082;2023-02-02T14:15:39;8.60;15.40
48328;DHT22;34136;51.022;7.082;2023-02-02T14:30:12;8.60;15.70
48328;DHT22;34136;51.022;7.082;2023-02-02T14:33:23;8.60;16.20
48328;DHT22;34136;51.022;7.082;2023-02-02T14:36:12;8.60;16.40
48328;DHT22;34136;51.022;7.082;2023-02-02T14:39:09;8.60;16.60
48328;DHT22;34136;51.022;7.082;2023-02-02T14:45:31;8.70;16.60
48328;DHT22;34136;51.022;7.082;2023-02-02T14:48:21;8.70;16.20
48328;DHT22;34136;51.022;7.082;2023-02-02T14:51:21;8.70;15.20
48328;DHT22;34136;51.022;7.082;2023-02-02T14:54:20;8.80;14.50
48328;DHT22;34136;51.022;7.082;2023-02-02T14:57:26;8.70;13.50
48328;DHT22;34136;51.022;7.082;2023-02-02T15:00:21;8.80;13.60
48328;DHT22;34136;51.022;7.082;2023-02-02T15:06:37;8.80;12.30
48328;DHT22;34136;51.022;7.082;2023-02-02T15:12:14;8.80;12.70
48328;DHT22;34136;51.022;7.082;2023-02-02T15:15:09;8.80;12.90
48328;DHT22;34136;51.022;7.082;2023-02-02T15:18:14;8.90;12.80
48328;DHT22;34136;51.022;7.082;2023-02-02T15:21:04;8.90;12.10
48328;DHT22;34136;51.022;7.082;2023-02-02T15:23:51;8.90;12.10
48328;DHT22;34136;51.022;7.082;2023-02-02T15:26:39;9.00;12.10
48328;DHT22;34136;51.022;7.082;2023-02-02T15:29:40;8.90;11.50
48328;DHT22;34136;51.022;7.082;2023-02-02T15:32:29;8.90;11.50
48328;DHT22;34136;51.022;7.082;2023-02-02T15:35:23;8.90;11.20
48328;DHT22;34136;51.022;7.082;2023-02-02T15:38:14;8.90;11.60
48328;DHT22;34136;51.022;7.082;2023-02-02T15:41:13;8.90;11.60
48328;DHT22;34136;51.022;7.082;2023-02-02T15:44:24;8.90;11.80
48328;DHT22;34136;51.022;7.082;2023-02-02T15:47:18;8.90;12.00
48328;DHT22;34136;51.022;7.082;2023-02-02T15:50:18;8.90;12.20
48328;DHT22;34136;51.022;7.082;2023-02-02T15:54:17;8.90;11.70
48328;DHT22;34136;51.022;7.082;2023-02-02T15:56:29;8.90;12.30
48328;DHT22;34136;51.022;7.082;2023-02-02T15:59:23;8.90;11.80
48328;DHT22;34136;51.022;7.082;2023-02-02T16:05:43;8.90;12.10
48328;DHT22;34136;51.022;7.082;2023-02-02T16:08:31;8.90;12.40
48328;DHT22;34136;51.022;7.082;2023-02-02T16:11:20;8.90;11.50
48328;DHT22;34136;51.022;7.082;2023-02-02T16:14:12;8.90;11.90
48328;DHT22;34136;51.022;7.082;2023-02-02T16:17:19;9.00;11.20
48328;DHT22;34136;51.022;7.082;2023-02-02T16:20:11;9.00;10.40
48328;DHT22;34136;51.022;7.082;2023-02-02T16:23:01;9.00;10.60
48328;DHT22;34136;51.022;7.082;2023-02-02T16:25:53;9.00;10.50
48328;DHT22;34136;51.022;7.082;2023-02-02T16:28:41;9.00;9.90
48328;DHT22;34136;51.022;7.082;2023-02-02T16:31:27;9.00;10.00
48328;DHT22;34136;51.022;7.082;2023-02-02T16:40:22;9.00;10.70
48328;DHT22;34136;51.022;7.082;2023-02-02T16:43:20;9.00;10.60
48328;DHT22;34136;51.022;7.082;2023-02-02T16:46:14;9.00;9.80
48328;DHT22;34136;51.022;7.082;2023-02-02T16:49:01;9.00;10.30
48328;DHT22;34136;51.022;7.082;2023-02-02T16:52:06;9.00;9.70
48328;DHT22;34136;51.022;7.082;2023-02-02T16:54:54;9.10;9.70
48328;DHT22;34136;51.022;7.082;2023-02-02T16:57:43;9.00;10.40
48328;DHT22;34136;51.022;7.082;2023-02-02T17:00:30;9.00;11.60
48328;DHT22;34136;51.022;7.082;2023-02-02T17:03:17;9.00;12.00
48328;DHT22;34136;51.022;7.082;2023-02-02T17:06:04;8.90;12.70
48328;DHT22;34136;51.022;7.082;2023-02-02T17:08:51;8.80;13.70
48328;DHT22;34136;51.022;7.082;2023-02-02T17:11:37;8.80;14.50
48328;DHT22;34136;51.022;7.082;2023-02-02T17:14:32;8.70;15.40
48328;DHT22;34136;51.022;7.082;2023-02-02T17:17:19;8.70;16.50
48328;DHT22;34136;51.022;7.082;2023-02-02T17:20:06;8.60;17.00
48328;DHT22;34136;51.022;7.082;2023-02-02T17:22:57;8.60;17.70
48328;DHT22;34136;51.022;7.082;2023-02-02T17:25:44;8.70;17.50
48328;DHT22;34136;51.022;7.082;2023-02-02T17:28:30;8.70;17.30
48328;DHT22;34136;51.022;7.082;2023-02-02T17:31:16;8.70;17.70
48328;DHT22;34136;51.022;7.082;2023-02-02T17:34:07;8.70;17.90
48328;DHT22;34136;51.022;7.082;2023-02-02T17:36:54;8.60;18.80
48328;DHT22;34136;51.022;7.082;2023-02-02T17:39:40;8.60;19.10
48328;DHT22;34136;51.022;7.082;2023-02-02T17:42:27;8.60;19.30
48328;DHT22;34136;51.022;7.082;2023-02-02T17:48:10;8.50;20.20
48328;DHT22;34136;51.022;7.082;2023-02-02T17:50:56;8.40;20.60
48328;DHT22;34136;51.022;7.082;2023-02-02T17:53:42;8.40;20.80
48328;DHT22;34136;51.022;7.082;2023-02-02T17:56:29;8.40;21.40
48328;DHT22;34136;51.022;7.082;2023-02-02T17:59:15;8.40;21.50
48328;DHT22;34136;51.022;7.082;2023-02-02T18:02:01;8.40;21.30
48328;DHT22;34136;51.022;7.082;2023-02-02T18:04:47;8.40;21.40
48328;DHT22;34136;51.022;7.082;2023-02-02T18:07:33;8.40;21.70
48328;DHT22;34136;51.022;7.082;2023-02-02T18:10:20;8.40;22.30
48328;DHT22;34136;51.022;7.082;2023-02-02T18:13:06;8.40;22.40
48328;DHT22;34136;51.022;7.082;2023-02-02T18:15:53;8.40;23.00
48328;DHT22;34136;51.022;7.082;2023-02-02T18:18:39;8.30;24.00
48328;DHT22;34136;51.022;7.082;2023-02-02T18:21:25;8.20;24.70
48328;DHT22;34136;51.022;7.082;2023-02-02T18:24:12;8.20;25.40
48328;DHT22;34136;51.022;7.082;2023-02-02T18:26:58;8.20;25.80
48328;DHT22;34136;51.022;7.082;2023-02-02T18:29:45;8.30;26.10
48328;DHT22;34136;51.022;7.082;2023-02-02T18:32:39;8.30;26.50
48328;DHT22;34136;51.022;7.082;2023-02-02T18:35:26;8.30;26.40
48328;DHT22;34136;51.022;7.082;2023-02-02T18:38:12;8.30;26.50
48328;DHT22;34136;51.022;7.082;2023-02-02T18:40:58;8.20;26.30
48328;DHT22;34136;51.022;7.082;2023-02-02T18:43:44;8.20;27.00
48328;DHT22;34136;51.022;7.082;2023-02-02T22:49:27;8.90;17.40
48328;DHT22;34136;51.022;7.082;2023-02-02T22:52:17;8.90;17.60
48328;DHT22;34136;51.022;7.082;2023-02-02T22:55:03;8.90;17.40
48328;DHT22;34136;51.022;7.082;2023-02-02T22:57:50;8.90;17.40
48328;DHT22;34136;51.022;7.082;2023-02-02T23:00:36;8.90;17.00
48328;DHT22;34136;51.022;7.082;2023-02-02T23:03:23;8.90;17.00
48328;DHT22;34136;51.022;7.082;2023-02-02T23:06:09;8.90;17.20
48328;DHT22;34136;51.022;7.082;2023-02-02T23:08:56;8.90;17.00
48328;DHT22;34136;51.022;7.082;2023-02-02T23:11:42;8.90;17.00
48328;DHT22;34136;51.022;7.082;2023-02-02T23:14:28;8.90;16.90
48328;DHT22;34136;51.022;7.082;2023-02-02T23:17:15;8.90;17.00
48328;DHT22;34136;51.022;7.082;2023-02-02T23:20:03;9.00;16.80
48328;DHT22;34136;51.022;7.082;2023-02-02T23:22:50;8.90;16.90
48328;DHT22;34136;51.022;7.082;2023-02-02T23:25:36;8.90;17.00
48328;DHT22;34136;51.022;7.082;2023-02-02T23:28:23;8.90;17.40
48328;DHT22;34136;51.022;7.082;2023-02-02T23:31:09;8.90;16.70
48328;DHT22;34136;51.022;7.082;2023-02-02T23:33:56;8.90;16.50
48328;DHT22;34136;51.022;7.082;2023-02-02T23:36:42;8.90;16.80
48328;DHT22;34136;51.022;7.082;2023-02-02T23:39:28;8.90;16.70
48328;DHT22;34136;51.022;7.082;2023-02-02T23:42:14;8.90;16.80
48328;DHT22;34136;51.022;7.082;2023-02-02T23:45:00;8.90;16.50
48328;DHT22;34136;51.022;7.082;2023-02-02T23:47:46;8.90;16.50
48328;DHT22;34136;51.022;7.082;2023-02-02T23:50:34;8.90;17.00
48328;DHT22;34136;51.022;7.082;2023-02-02T23:53:21;8.90;16.30
48328;DHT22;34136;51.022;7.082;2023-02-02T23:56:07;9.00;16.30
48328;DHT22;34136;51.022;7.082;2023-02-02T23:58:53;8.90;16.40
